Time;durP1;ratioP1;P1;durP2;ratioP2;P2;SDS_P1;SDS_P2;PMS_P1;PMS_P2;Temp;Humidity;BMP_temperature;BMP_pressure;BME280_temperature;BME280_humidity;BME280_pressure;Samples;Min_cycle;Max_cycle;Signal;HPM_P1;HPM_P2
2023/07/21 00:01:41;;;;;;;;;;;;;;;24.54;42.57;98153.66;5091372;28;19912;-46
2023/07/21 00:04:06;;;;;;;;;;;;;;;24.53;41.92;98155.53;5092613;28;20010;-46
2023/07/21 00:06:32;;;;;;;;;;;;;;;24.42;42.06;98154.16;5092885;28;19970;-46
2023/07/21 00:08:57;;;;;;;;;;;;;;;24.14;42.20;98154.25;5091243;28;19920;-46
2023/07/21 00:11:23;;;;;;;;;;;;;;;23.91;42.47;98158.78;5091222;28;19919;-46
2023/07/21 00:13:48;;;;;;;;;;;;;;;23.75;43.14;98157.50;5091237;28;19916;-46
2023/07/21 00:16:14;;;;;;;;;;;;;;;23.86;43.53;98159.66;5091033;28;20262;-46
2023/07/21 00:18:41;;;;;;;;;;;;;;;24.06;42.93;98160.31;5092458;28;20381;-46
2023/07/21 00:21:07;;;;;;;;;;;;;;;24.25;42.62;98158.28;5092385;28;19992;-46
2023/07/21 00:23:33;;;;;;;;;;;;;;;24.46;42.46;98158.59;5092368;28;19916;-46
2023/07/21 00:26:00;;;;;;;;;;;;;;;24.42;42.03;98157.63;5090997;28;19912;-46
2023/07/21 00:28:26;;;;;;;;;;;;;;;24.14;42.13;98151.56;5092618;28;20312;-46
2023/07/21 00:30:51;;;;;;;;;;;;;;;24.00;42.77;98151.59;5092562;28;20003;-46
2023/07/21 00:33:17;;;;;;;;;;;;;;;24.14;42.52;98151.56;5091008;28;20377;-46
2023/07/21 00:35:43;;;;;;;;;;;;;;;24.20;42.39;98144.22;5090855;28;19916;-46
2023/07/21 00:38:09;;;;;;;;;;;;;;;24.08;42.57;98148.19;5091984;28;19916;-46
2023/07/21 00:40:37;;;;;;;;;;;;;;;23.93;42.80;98146.66;5090868;28;19918;-46
2023/07/21 00:43:03;;;;;;;;;;;;;;;23.95;43.10;98151.72;5092444;28;19935;-46
2023/07/21 00:45:29;;;;;;;;;;;;;;;24.20;42.92;98146.88;5090873;28;20460;-46
2023/07/21 00:47:56;;;;;;;;;;;;;;;24.36;42.51;98145.44;5094876;28;19922;-46
2023/07/21 00:50:24;;;;;;;;;;;;;;;24.44;42.00;98146.59;5096250;28;20377;-46
2023/07/21 00:52:50;;;;;;;;;;;;;;;24.60;42.17;98147.84;5096133;28;19970;-46
2023/07/21 00:55:15;;;;;;;;;;;;;;;24.77;41.72;98136.44;5094899;28;19947;-46
2023/07/21 00:57:41;;;;;;;;;;;;;;;24.93;41.64;98139.50;5096167;28;19919;-46
2023/07/21 01:00:11;;;;;;;;;;;;;;;25.02;41.21;98137.66;5096336;28;19912;-46
2023/07/21 01:02:37;;;;;;;;;;;;;;;25.06;41.10;98135.94;5096056;28;20404;-46
2023/07/21 01:05:03;;;;;;;;;;;;;;;25.00;41.17;98134.50;5096016;28;19912;-46
2023/07/21 01:07:32;;;;;;;;;;;;;;;24.82;41.42;98128.25;5096239;28;19919;-46
2023/07/21 01:09:58;;;;;;;;;;;;;;;24.61;41.64;98124.47;5095854;28;19916;-46
2023/07/21 01:12:24;;;;;;;;;;;;;;;24.24;41.95;98123.72;5095922;28;19919;-46
2023/07/21 01:14:49;;;;;;;;;;;;;;;24.06;42.89;98117.44;5094571;28;19955;-46
2023/07/21 01:17:15;;;;;;;;;;;;;;;24.40;43.01;98118.81;5095612;28;20002;-46
2023/07/21 01:19:41;;;;;;;;;;;;;;;24.69;42.35;98113.03;5095695;28;19962;-46
2023/07/21 01:22:18;;;;;;;;;;;;;;;24.75;42.28;98108.31;5095708;28;19912;-46
2023/07/21 01:24:48;;;;;;;;;;;;;;;24.79;42.21;98102.03;5094385;28;19919;-46
2023/07/21 01:27:15;;;;;;;;;;;;;;;24.79;42.05;98103.91;5095536;28;19919;-46
2023/07/21 01:29:42;;;;;;;;;;;;;;;24.78;43.10;98110.38;5095580;28;19912;-46
2023/07/21 01:32:10;;;;;;;;;;;;;;;24.72;43.49;98109.72;5094219;28;20184;-46
2023/07/21 01:34:37;;;;;;;;;;;;;;;24.58;43.74;98109.00;5095457;28;19912;-46
2023/07/21 01:37:03;;;;;;;;;;;;;;;24.24;43.44;98105.75;5094994;28;19919;-46
2023/07/21 01:39:30;;;;;;;;;;;;;;;23.92;44.30;98109.44;5094122;28;19957;-46
2023/07/21 01:42:00;;;;;;;;;;;;;;;23.92;44.68;98109.44;5095250;28;19958;-46
2023/07/21 01:44:26;;;;;;;;;;;;;;;23.85;44.56;98117.09;5094055;28;19918;-46
2023/07/21 01:46:54;;;;;;;;;;;;;;;23.79;44.49;98107.59;5093903;28;19908;-46
2023/07/21 01:49:19;;;;;;;;;;;;;;;23.88;44.52;98111.13;5095221;28;19916;-46
2023/07/21 01:51:46;;;;;;;;;;;;;;;23.87;44.55;98106.88;5095137;28;20338;-46
2023/07/21 01:54:18;;;;;;;;;;;;;;;23.93;44.50;98114.50;5095172;28;19911;-46
2023/07/21 01:56:54;;;;;;;;;;;;;;;23.60;44.11;98108.47;5095332;28;20281;-46
2023/07/21 01:59:21;;;;;;;;;;;;;;;23.05;44.99;98105.81;5093052;28;20058;-46
2023/07/21 02:01:48;;;;;;;;;;;;;;;22.40;45.48;98109.31;5095053;28;19912;-46
2023/07/21 02:04:14;;;;;;;;;;;;;;;21.86;46.78;98111.41;5094918;28;19915;-46
2023/07/21 02:06:39;;;;;;;;;;;;;;;21.41;47.44;98113.53;5094844;28;19919;-46
2023/07/21 02:09:05;;;;;;;;;;;;;;;21.10;48.26;98112.00;5094802;28;20373;-46
2023/07/21 02:11:30;;;;;;;;;;;;;;;20.83;49.51;98112.56;5094741;28;20023;-46
2023/07/21 02:13:56;;;;;;;;;;;;;;;20.47;51.24;98115.50;5076553;28;19912;-46
2023/07/21 02:16:22;;;;;;;;;;;;;;;20.21;52.12;98114.09;5093269;28;20438;-46
2023/07/21 02:18:47;;;;;;;;;;;;;;;20.12;52.42;98114.69;5093291;28;19920;-46
2023/07/21 02:21:13;;;;;;;;;;;;;;;20.58;52.65;98120.75;5093233;28;19916;-46
2023/07/21 02:23:38;;;;;;;;;;;;;;;21.01;51.64;98126.28;5094577;28;20007;-46
2023/07/21 02:26:03;;;;;;;;;;;;;;;21.33;51.08;98123.00;5094409;28;20007;-46
2023/07/21 02:28:29;;;;;;;;;;;;;;;21.54;50.35;98126.25;5093109;28;19920;-45
2023/07/21 02:30:59;;;;;;;;;;;;;;;21.60;50.27;98130.44;5094333;28;19960;-46
2023/07/21 02:33:24;;;;;;;;;;;;;;;21.83;49.91;98128.00;5094291;28;19958;-46
2023/07/21 02:35:50;;;;;;;;;;;;;;;22.02;49.73;98131.50;5092880;28;19955;-46
2023/07/21 02:38:15;;;;;;;;;;;;;;;22.13;49.17;98122.25;5093963;28;19923;-46
2023/07/21 02:40:40;;;;;;;;;;;;;;;22.08;48.48;98125.00;5092873;28;19919;-46
2023/07/21 02:43:06;;;;;;;;;;;;;;;21.75;48.81;98132.09;5094154;28;19919;-46
2023/07/21 02:45:31;;;;;;;;;;;;;;;21.75;49.32;98132.09;5094059;28;19922;-46
2023/07/21 02:47:57;;;;;;;;;;;;;;;22.03;49.48;98122.38;5094016;28;19934;-46
2023/07/21 02:50:24;;;;;;;;;;;;;;;22.42;48.72;98120.53;5093998;28;20479;-46
2023/07/21 02:52:49;;;;;;;;;;;;;;;22.27;48.12;98114.31;5093966;28;19916;-45
2023/07/21 02:55:14;;;;;;;;;;;;;;;22.00;48.29;98125.63;5093841;28;20435;-46
2023/07/21 02:57:40;;;;;;;;;;;;;;;21.73;48.52;98124.41;5093884;28;19966;-46
2023/07/21 03:00:06;;;;;;;;;;;;;;;21.65;49.32;98129.56;5093761;28;19912;-45
2023/07/21 03:02:34;;;;;;;;;;;;;;;21.48;49.33;98122.81;5093786;28;19913;-46
2023/07/21 03:05:03;;;;;;;;;;;;;;;21.57;50.15;98131.03;5092508;28;20343;-46
2023/07/21 03:07:29;;;;;;;;;;;;;;;22.04;49.65;98126.66;5093669;28;19919;-46
2023/07/21 03:09:54;;;;;;;;;;;;;;;22.46;48.87;98125.00;5093066;28;19912;-46
2023/07/21 03:12:19;;;;;;;;;;;;;;;22.54;47.86;98121.66;5091804;28;19966;-46
2023/07/21 03:14:45;;;;;;;;;;;;;;;22.59;48.59;98122.66;5093557;28;19919;-46
2023/07/21 03:17:12;;;;;;;;;;;;;;;22.74;48.08;98122.41;5092038;28;19912;-46
2023/07/21 03:19:37;;;;;;;;;;;;;;;22.98;47.73;98127.59;5093428;28;19923;-46
2023/07/21 03:22:02;;;;;;;;;;;;;;;23.29;47.37;98127.06;5093374;28;19912;-46
2023/07/21 03:24:28;;;;;;;;;;;;;;;23.50;46.92;98127.44;5093332;28;19916;-46
2023/07/21 03:26:53;;;;;;;;;;;;;;;23.64;46.57;98127.41;5091932;28;19918;-46
2023/07/21 03:29:19;;;;;;;;;;;;;;;23.90;46.09;98123.16;5091994;28;19920;-46
2023/07/21 03:31:54;;;;;;;;;;;;;;;23.97;45.04;98127.31;5069528;28;19929;-46
2023/07/21 03:34:20;;;;;;;;;;;;;;;23.66;45.12;98126.03;5069906;28;20352;-45
2023/07/21 03:36:46;;;;;;;;;;;;;;;23.30;45.56;98139.34;5069457;28;19970;-45
2023/07/21 03:39:11;;;;;;;;;;;;;;;23.17;46.85;98129.44;5068130;28;19925;-46
2023/07/21 03:41:37;;;;;;;;;;;;;;;23.09;46.41;98120.19;5069431;28;19917;-46
2023/07/21 03:44:02;;;;;;;;;;;;;;;22.74;46.79;98125.88;5068034;28;20133;-45
2023/07/21 03:46:28;;;;;;;;;;;;;;;22.28;47.29;98129.28;5069301;28;19917;-45
2023/07/21 03:48:53;;;;;;;;;;;;;;;21.74;48.36;98139.34;5069229;28;20375;-45
2023/07/21 03:51:19;;;;;;;;;;;;;;;21.33;49.07;98134.47;5067810;28;19927;-45
2023/07/21 03:53:44;;;;;;;;;;;;;;;21.33;50.13;98133.69;5069201;28;19924;-45
2023/07/21 03:56:09;;;;;;;;;;;;;;;21.49;49.89;98132.44;5069045;28;19916;-45
2023/07/21 03:58:35;;;;;;;;;;;;;;;21.48;49.73;98130.84;5069106;28;19920;-45
2023/07/21 04:01:00;;;;;;;;;;;;;;;21.73;50.09;98132.41;5069264;28;19920;-46
2023/07/21 04:03:26;;;;;;;;;;;;;;;21.81;49.88;98127.50;5067680;28;19917;-45
2023/07/21 04:05:52;;;;;;;;;;;;;;;21.90;50.15;98131.91;5068894;28;20302;-46
2023/07/21 04:08:18;;;;;;;;;;;;;;;22.00;49.88;98130.97;5068817;28;19916;-45
2023/07/21 04:10:44;;;;;;;;;;;;;;;21.82;50.28;98127.22;5068962;28;19925;-45
2023/07/21 04:13:09;;;;;;;;;;;;;;;21.57;50.99;98128.34;5068820;28;19943;-45
2023/07/21 04:15:35;;;;;;;;;;;;;;;21.53;51.51;98129.97;5068703;28;19916;-45
2023/07/21 04:18:01;;;;;;;;;;;;;;;21.79;51.30;98132.34;5067325;28;19916;-45
2023/07/21 04:20:28;;;;;;;;;;;;;;;22.15;50.83;98127.28;5068641;28;19917;-45
2023/07/21 04:22:54;;;;;;;;;;;;;;;22.54;50.15;98123.53;5068571;28;19921;-45
2023/07/21 04:25:19;;;;;;;;;;;;;;;22.41;49.53;98126.94;5067199;28;20378;-45
2023/07/21 04:27:50;;;;;;;;;;;;;;;22.04;49.27;98128.53;5068469;28;20365;-45
2023/07/21 04:30:16;;;;;;;;;;;;;;;21.88;50.22;98133.28;5075163;28;19920;-45
2023/07/21 04:32:41;;;;;;;;;;;;;;;22.28;50.33;98133.84;5088623;28;19923;-45
2023/07/21 04:35:10;;;;;;;;;;;;;;;22.49;49.46;98127.06;5088595;28;20386;-45
2023/07/21 04:37:35;;;;;;;;;;;;;;;22.34;49.17;98130.00;5088526;28;19924;-46
2023/07/21 04:40:01;;;;;;;;;;;;;;;22.27;49.11;98132.22;5088512;28;19916;-45
2023/07/21 04:42:26;;;;;;;;;;;;;;;21.83;49.51;98136.84;5061310;28;19917;-45
2023/07/21 04:44:52;;;;;;;;;;;;;;;21.62;50.46;98135.50;5057001;28;19921;-45
2023/07/21 04:47:18;;;;;;;;;;;;;;;21.78;50.72;98126.19;5056896;28;19916;-46
2023/07/21 04:49:43;;;;;;;;;;;;;;;21.82;50.26;98123.75;5056763;28;19920;-45
2023/07/21 04:52:09;;;;;;;;;;;;;;;21.89;50.53;98121.50;5074778;28;19916;-45
2023/07/21 04:54:36;;;;;;;;;;;;;;;22.13;50.22;98116.91;5074642;28;19916;-45
2023/07/21 04:57:02;;;;;;;;;;;;;;;22.54;49.80;98120.84;5074734;28;19923;-45
2023/07/21 04:59:27;;;;;;;;;;;;;;;23.00;49.04;98122.75;5074710;28;19916;-45
2023/07/21 05:01:52;;;;;;;;;;;;;;;23.47;48.04;98117.31;5056672;28;20398;-45
2023/07/21 05:04:19;;;;;;;;;;;;;;;23.73;47.74;98109.56;5074453;28;19920;-46
2023/07/21 05:06:47;;;;;;;;;;;;;;;24.16;46.80;98119.88;5074486;28;19917;-45
2023/07/21 05:09:13;;;;;;;;;;;;;;;24.46;46.11;98121.03;5057212;28;20302;-45
2023/07/21 05:11:38;;;;;;;;;;;;;;;24.71;45.42;98116.19;5056338;28;19916;-46
2023/07/21 05:14:04;;;;;;;;;;;;;;;25.15;44.84;98111.81;5074375;28;20015;-45
2023/07/21 05:16:31;;;;;;;;;;;;;;;25.20;44.18;98116.25;5056392;28;20416;-45
2023/07/21 05:18:57;;;;;;;;;;;;;;;25.63;43.24;98113.72;5074378;28;19949;-45
2023/07/21 05:21:22;;;;;;;;;;;;;;;26.39;41.64;98100.97;5056221;28;20302;-45
2023/07/21 05:23:47;;;;;;;;;;;;;;;25.46;41.84;98111.00;5074186;28;19921;-45
2023/07/21 05:26:13;;;;;;;;;;;;;;;24.11;44.24;98112.75;5074150;28;19928;-45
2023/07/21 05:28:38;;;;;;;;;;;;;;;23.23;46.17;98118.31;5056159;28;20336;-45
2023/07/21 05:31:04;;;;;;;;;;;;;;;22.96;47.24;98116.41;5055779;28;19928;-45
2023/07/21 05:33:29;;;;;;;;;;;;;;;22.84;47.98;98118.72;5073967;28;20475;-45
2023/07/21 05:36:07;;;;;;;;;;;;;;;23.08;47.64;98113.25;5073959;28;20310;-45
2023/07/21 05:38:32;;;;;;;;;;;;;;;23.31;47.30;98124.88;5073960;28;19939;-45
2023/07/21 05:40:58;;;;;;;;;;;;;;;23.92;46.86;98115.59;5073840;28;20410;-45
2023/07/21 05:43:24;;;;;;;;;;;;;;;24.47;45.88;98127.22;5055818;28;20005;-45
2023/07/21 05:45:50;;;;;;;;;;;;;;;24.33;45.22;98135.34;5073762;28;19916;-45
2023/07/21 05:48:15;;;;;;;;;;;;;;;24.45;45.96;98138.25;5055759;28;19917;-45
2023/07/21 05:50:43;;;;;;;;;;;;;;;24.98;45.37;98134.00;5073590;28;19916;-45
2023/07/21 05:53:08;;;;;;;;;;;;;;;25.45;44.56;98134.38;5072888;28;20400;-45
2023/07/21 05:55:34;;;;;;;;;;;;;;;25.86;43.55;98138.59;5055313;28;19920;-46
2023/07/21 05:57:59;;;;;;;;;;;;;;;26.10;43.39;98146.22;5073565;28;19948;-46
2023/07/21 06:00:25;;;;;;;;;;;;;;;26.57;42.52;98150.94;5055545;28;19916;-45
2023/07/21 06:02:51;;;;;;;;;;;;;;;26.47;42.63;98140.53;5055411;28;20007;-46
2023/07/21 06:05:16;;;;;;;;;;;;;;;26.58;42.40;98146.38;5073357;28;19920;-46
2023/07/21 06:07:44;;;;;;;;;;;;;;;26.88;42.41;98148.09;5055443;28;20437;-45
2023/07/21 06:10:10;;;;;;;;;;;;;;;27.43;41.11;98153.78;5073213;28;19916;-45
2023/07/21 06:12:35;;;;;;;;;;;;;;;27.64;40.35;98154.59;5055317;28;20455;-45
2023/07/21 06:15:01;;;;;;;;;;;;;;;27.44;40.19;98160.72;5055295;28;19920;-46
2023/07/21 06:17:26;;;;;;;;;;;;;;;27.57;40.01;98167.00;5055214;28;20412;-46
2023/07/21 06:19:52;;;;;;;;;;;;;;;27.44;39.71;98176.91;5073021;28;19920;-45
2023/07/21 06:22:17;;;;;;;;;;;;;;;27.34;40.06;98169.19;5055240;28;19969;-46
2023/07/21 06:24:44;;;;;;;;;;;;;;;27.31;40.03;98167.94;5055042;28;19927;-46
2023/07/21 06:27:12;;;;;;;;;;;;;;;27.35;40.03;98174.25;5072927;28;19947;-45
2023/07/21 06:29:37;;;;;;;;;;;;;;;27.48;39.83;98170.53;5072496;28;19923;-46
2023/07/21 06:32:03;;;;;;;;;;;;;;;27.57;39.63;98175.91;5072891;28;19920;-46
2023/07/21 06:34:28;;;;;;;;;;;;;;;27.14;40.18;98174.13;5054785;28;19966;-45
2023/07/21 06:36:54;;;;;;;;;;;;;;;26.85;41.09;98183.72;5072838;28;20011;-45
2023/07/21 06:39:22;;;;;;;;;;;;;;;27.23;40.77;98182.19;5072765;28;19921;-46
2023/07/21 06:41:48;;;;;;;;;;;;;;;27.44;40.34;98184.97;5072912;28;20016;-45
2023/07/21 06:44:14;;;;;;;;;;;;;;;27.55;39.74;98182.72;5072756;28;19927;-45
2023/07/21 06:46:40;;;;;;;;;;;;;;;27.63;39.90;98184.59;5072631;28;19934;-46
2023/07/21 06:49:05;;;;;;;;;;;;;;;27.73;39.41;98184.22;5072639;28;19917;-46
2023/07/21 06:51:31;;;;;;;;;;;;;;;27.87;38.90;98190.19;5054600;28;19955;-46
2023/07/21 06:53:56;;;;;;;;;;;;;;;28.15;39.01;98192.41;5072567;28;19923;-46
2023/07/21 06:56:22;;;;;;;;;;;;;;;29.16;37.71;98180.53;5072381;28;19975;-45
2023/07/21 06:58:47;;;;;;;;;;;;;;;31.80;34.62;98179.41;5054562;28;19916;-46
2023/07/21 07:01:12;;;;;;;;;;;;;;;34.10;31.85;98175.34;5054503;28;20122;-46
2023/07/21 07:03:38;;;;;;;;;;;;;;;36.31;29.39;98181.19;5037866;28;20009;-46
2023/07/21 07:06:03;;;;;;;;;;;;;;;38.44;27.08;98165.50;5037552;28;19935;-46
2023/07/21 07:08:29;;;;;;;;;;;;;;;39.94;25.35;98166.28;5054633;28;19917;-46
2023/07/21 07:10:54;;;;;;;;;;;;;;;40.63;23.51;98163.44;5054274;28;19916;-47
2023/07/21 07:13:20;;;;;;;;;;;;;;;39.91;23.41;98173.41;5072304;28;19959;-46
2023/07/21 07:15:49;;;;;;;;;;;;;;;39.95;22.20;98165.13;5054287;28;19923;-47
2023/07/21 07:18:14;;;;;;;;;;;;;;;40.03;22.19;98168.56;5054449;28;20024;-47
2023/07/21 07:20:42;;;;;;;;;;;;;;;39.84;22.27;98167.16;5072426;28;20454;-46
2023/07/21 07:23:07;;;;;;;;;;;;;;;40.11;22.06;98167.28;5072213;28;19917;-46
2023/07/21 07:25:34;;;;;;;;;;;;;;;40.29;22.06;98165.06;5054107;28;20047;-46
2023/07/21 07:27:59;;;;;;;;;;;;;;;40.45;21.63;98164.50;5037726;28;19962;-46
2023/07/21 07:30:25;;;;;;;;;;;;;;;40.49;21.74;98167.97;5053729;28;20301;-46
2023/07/21 07:32:50;;;;;;;;;;;;;;;40.25;21.08;98177.31;5072118;28;20116;-46
2023/07/21 07:35:16;;;;;;;;;;;;;;;39.62;21.83;98180.34;5054091;28;19924;-46
2023/07/21 07:37:42;;;;;;;;;;;;;;;38.29;22.38;98182.00;5071935;28;19917;-46
2023/07/21 07:40:08;;;;;;;;;;;;;;;36.69;23.96;98186.44;5072008;28;19916;-46
2023/07/21 07:42:35;;;;;;;;;;;;;;;35.39;25.13;98185.69;5071992;28;19916;-47
2023/07/21 07:45:01;;;;;;;;;;;;;;;34.32;26.36;98190.06;5071837;28;20388;-46
2023/07/21 07:47:27;;;;;;;;;;;;;;;33.77;27.02;98193.19;5053876;28;19917;-46
2023/07/21 07:49:52;;;;;;;;;;;;;;;33.32;27.40;98197.53;5071871;28;19971;-46
2023/07/21 07:52:18;;;;;;;;;;;;;;;32.93;28.28;98200.34;5053911;28;19955;-46
2023/07/21 07:54:43;;;;;;;;;;;;;;;33.02;28.66;98184.56;5071884;28;19920;-46
2023/07/21 07:57:09;;;;;;;;;;;;;;;33.95;27.89;98196.16;5072359;28;19917;-46
2023/07/21 07:59:35;;;;;;;;;;;;;;;35.61;26.58;98194.03;5053813;28;19920;-46
2023/07/21 08:02:00;;;;;;;;;;;;;;;36.84;25.29;98198.94;5053823;28;20382;-46
2023/07/21 08:04:26;;;;;;;;;;;;;;;37.35;24.77;98195.09;5053775;28;19999;-46
2023/07/21 08:06:51;;;;;;;;;;;;;;;38.13;24.45;98190.72;5053761;28;19920;-46
2023/07/21 08:09:17;;;;;;;;;;;;;;;38.64;23.30;98202.25;5071743;28;19974;-46
2023/07/21 08:11:42;;;;;;;;;;;;;;;38.95;22.69;98199.69;5071611;28;19916;-46
2023/07/21 08:14:08;;;;;;;;;;;;;;;39.07;22.64;98201.19;5053741;28;19995;-46
2023/07/21 08:16:35;;;;;;;;;;;;;;;39.32;22.49;98201.00;5054114;28;20349;-46
2023/07/21 08:19:01;;;;;;;;;;;;;;;39.54;22.16;98193.38;5075331;28;19917;-47
2023/07/21 08:21:27;;;;;;;;;;;;;;;39.46;22.24;98194.63;5057385;28;19916;-46
2023/07/21 08:23:54;;;;;;;;;;;;;;;39.30;21.93;98197.88;5075254;28;19979;-47
2023/07/21 08:26:20;;;;;;;;;;;;;;;38.56;23.00;98197.97;5075475;28;19916;-46
2023/07/21 08:28:46;;;;;;;;;;;;;;;37.96;23.18;98197.75;5057473;28;19986;-46
2023/07/21 08:31:12;;;;;;;;;;;;;;;37.43;23.47;98193.16;5053652;28;19925;-46
2023/07/21 08:33:37;;;;;;;;;;;;;;;37.71;23.93;98202.50;5055077;28;20420;-46
2023/07/21 08:36:03;;;;;;;;;;;;;;;38.60;23.32;98198.75;5055156;28;19917;-46
2023/07/21 08:38:29;;;;;;;;;;;;;;;39.39;21.53;98200.16;5054139;28;19920;-47
2023/07/21 08:41:01;;;;;;;;;;;;;;;39.88;21.47;98196.19;5055035;28;19967;-46
2023/07/21 08:43:28;;;;;;;;;;;;;;;40.71;20.99;98197.94;5054967;28;19960;-46
2023/07/21 08:45:54;;;;;;;;;;;;;;;41.26;20.39;98199.50;5054944;28;19917;-46
2023/07/21 08:48:20;;;;;;;;;;;;;;;42.66;19.59;98198.81;5054859;28;19964;-49
2023/07/21 08:50:48;;;;;;;;;;;;;;;43.23;18.94;98202.25;5054842;28;19928;-48
2023/07/21 08:53:13;;;;;;;;;;;;;;;44.63;17.95;98201.22;5053498;28;19917;-49
2023/07/21 08:55:39;;;;;;;;;;;;;;;45.41;16.97;98200.69;5053419;28;19928;-49
2023/07/21 08:58:06;;;;;;;;;;;;;;;45.43;17.05;98201.03;5054766;28;19917;-49
2023/07/21 09:00:31;;;;;;;;;;;;;;;46.05;16.58;98202.47;5053400;28;19923;-49
2023/07/21 09:02:59;;;;;;;;;;;;;;;46.27;15.87;98191.34;5054608;28;20007;-49
2023/07/21 09:05:25;;;;;;;;;;;;;;;45.86;15.31;98207.06;5054542;28;19917;-48
2023/07/21 09:07:51;;;;;;;;;;;;;;;45.84;15.69;98213.09;5053528;28;19942;-49
2023/07/21 09:10:34;;;;;;;;;;;;;;;46.02;15.78;98217.22;5053101;28;19963;-48
2023/07/21 09:13:01;;;;;;;;;;;;;;;46.14;15.55;98221.94;5053257;28;19916;-49
2023/07/21 09:15:26;;;;;;;;;;;;;;;46.42;15.50;98225.66;5053054;28;20015;-49
2023/07/21 09:17:52;;;;;;;;;;;;;;;46.60;14.78;98224.97;5054310;28;19967;-49
2023/07/21 09:20:20;;;;;;;;;;;;;;;46.14;14.88;98230.25;5053282;28;19927;-49
2023/07/21 09:22:49;;;;;;;;;;;;;;;45.85;14.94;98228.50;5053103;28;19971;-48
2023/07/21 09:25:21;;;;;;;;;;;;;;;45.67;14.86;98231.13;5052867;28;19927;-48
2023/07/21 09:27:54;;;;;;;;;;;;;;;45.36;14.96;98234.53;5054108;28;20283;-48
2023/07/21 09:30:19;;;;;;;;;;;;;;;45.23;14.94;98242.84;5061219;28;20007;-49
2023/07/21 09:32:45;;;;;;;;;;;;;;;45.23;15.07;98236.53;5056129;28;19962;-49
2023/07/21 09:35:10;;;;;;;;;;;;;;;45.26;14.94;98241.22;5056299;28;19924;-48
2023/07/21 09:37:37;;;;;;;;;;;;;;;45.27;14.78;98251.06;5056012;28;20337;-48
2023/07/21 09:40:10;;;;;;;;;;;;;;;45.27;14.72;98239.97;5073861;28;19923;-48
2023/07/21 09:42:36;;;;;;;;;;;;;;;45.07;14.73;98245.75;5073937;28;19939;-49
2023/07/21 09:45:01;;;;;;;;;;;;;;;44.98;14.78;98242.88;5055874;28;19916;-49
2023/07/21 09:47:27;;;;;;;;;;;;;;;44.83;15.11;98245.28;5073789;28;19923;-49
2023/07/21 09:49:54;;;;;;;;;;;;;;;44.46;15.13;98251.09;5073642;28;19923;-49
2023/07/21 09:52:20;;;;;;;;;;;;;;;44.65;15.43;98243.84;5073650;28;19916;-49
2023/07/21 09:54:55;;;;;;;;;;;;;;;45.02;15.00;98238.78;5055649;28;19923;-49
2023/07/21 09:57:24;;;;;;;;;;;;;;;45.27;14.67;98239.97;5073567;28;19916;-49
2023/07/21 09:59:50;;;;;;;;;;;;;;;45.24;14.91;98251.94;5073516;28;20045;-49
2023/07/21 10:02:16;;;;;;;;;;;;;;;44.99;14.73;98252.72;5073705;28;20301;-49
2023/07/21 10:04:42;;;;;;;;;;;;;;;44.95;14.75;98249.31;5055451;28;20431;-49
2023/07/21 10:07:09;;;;;;;;;;;;;;;44.64;15.07;98247.06;5073320;28;19922;-49
2023/07/21 10:09:36;;;;;;;;;;;;;;;44.23;14.98;98252.19;5073227;28;19940;-49
2023/07/21 10:12:08;;;;;;;;;;;;;;;43.60;15.44;98247.13;5055232;28;20014;-48
2023/07/21 10:14:36;;;;;;;;;;;;;;;43.30;15.45;98265.59;5073129;28;19924;-49
2023/07/21 10:17:02;;;;;;;;;;;;;;;43.46;15.47;98254.53;5055297;28;19920;-49
2023/07/21 10:19:28;;;;;;;;;;;;;;;43.49;15.54;98261.97;5055219;28;19923;-49
2023/07/21 10:21:54;;;;;;;;;;;;;;;43.53;15.57;98255.56;5073116;28;20136;-49
2023/07/21 10:24:24;;;;;;;;;;;;;;;44.00;15.15;98264.22;5073012;28;19920;-48
2023/07/21 10:27:00;;;;;;;;;;;;;;;44.04;15.38;98266.91;5055302;28;20435;-49
2023/07/21 10:29:26;;;;;;;;;;;;;;;43.67;15.38;98269.84;5073255;28;19917;-49
2023/07/21 10:31:52;;;;;;;;;;;;;;;43.36;15.45;98268.63;5051428;28;19969;-48
2023/07/21 10:34:18;;;;;;;;;;;;;;;43.51;15.88;98269.03;5052917;28;19916;-48
2023/07/21 10:36:52;;;;;;;;;;;;;;;43.51;15.72;98256.03;5053101;28;20342;-48
2023/07/21 10:39:26;;;;;;;;;;;;;;;43.25;15.42;98268.88;5051018;28;19983;-49
2023/07/21 10:41:55;;;;;;;;;;;;;;;43.09;15.46;98275.94;5051433;28;19964;-48
2023/07/21 10:44:21;;;;;;;;;;;;;;;43.18;15.54;98269.03;5051468;28;19960;-49
2023/07/21 10:46:48;;;;;;;;;;;;;;;43.48;15.66;98263.19;5068111;28;19952;-49
2023/07/21 10:49:14;;;;;;;;;;;;;;;43.54;15.54;98268.19;5052612;28;19970;-49
2023/07/21 10:51:44;;;;;;;;;;;;;;;43.28;15.74;98268.78;5052448;28;19917;-49
2023/07/21 10:54:10;;;;;;;;;;;;;;;43.05;15.98;98272.47;5051294;28;19924;-49
2023/07/21 10:56:38;;;;;;;;;;;;;;;43.35;15.98;98267.88;5051225;28;20351;-49
2023/07/21 10:59:04;;;;;;;;;;;;;;;42.98;15.99;98266.34;5052498;28;20325;-49
2023/07/21 11:01:31;;;;;;;;;;;;;;;42.59;15.97;98265.22;5051117;28;19917;-48
2023/07/21 11:03:57;;;;;;;;;;;;;;;42.89;15.72;98262.19;5052441;28;19924;-48
2023/07/21 11:06:23;;;;;;;;;;;;;;;43.11;15.67;98272.75;5067674;28;19921;-49
2023/07/21 11:08:49;;;;;;;;;;;;;;;42.25;16.10;98271.78;5051046;28;19979;-49
2023/07/21 11:11:15;;;;;;;;;;;;;;;41.64;16.80;98261.84;5052191;28;19916;-49
2023/07/21 11:13:40;;;;;;;;;;;;;;;41.69;16.98;98273.16;5050952;28;20011;-49
2023/07/21 11:16:05;;;;;;;;;;;;;;;41.14;17.09;98266.13;5050902;28;19921;-49
2023/07/21 11:18:31;;;;;;;;;;;;;;;40.12;17.71;98281.53;5051230;28;19917;-48
2023/07/21 11:20:56;;;;;;;;;;;;;;;40.07;17.85;98274.53;5052457;28;20314;-48
2023/07/21 11:23:28;;;;;;;;;;;;;;;40.10;17.89;98270.16;5052159;28;20027;-48
2023/07/21 11:26:03;;;;;;;;;;;;;;;39.60;18.21;98276.88;5050864;28;19921;-48
2023/07/21 11:28:29;;;;;;;;;;;;;;;39.54;18.43;98267.53;5050811;28;19966;-48
2023/07/21 11:30:54;;;;;;;;;;;;;;;39.67;18.32;98271.34;5050420;28;19924;-48
2023/07/21 11:33:20;;;;;;;;;;;;;;;40.15;17.99;98269.72;5050710;28;19921;-48
2023/07/21 11:35:46;;;;;;;;;;;;;;;40.59;17.89;98268.06;5050832;28;19924;-48
2023/07/21 11:38:12;;;;;;;;;;;;;;;41.06;17.63;98264.69;5052043;28;20027;-48
2023/07/21 11:40:37;;;;;;;;;;;;;;;41.17;17.30;98273.56;5052032;28;20401;-49
2023/07/21 11:43:06;;;;;;;;;;;;;;;41.04;17.16;98276.13;5052048;28;20409;-48
2023/07/21 11:45:35;;;;;;;;;;;;;;;41.38;16.87;98266.97;5051951;28;19921;-49
2023/07/21 11:48:12;;;;;;;;;;;;;;;41.49;17.09;98273.09;5050619;28;19916;-49
2023/07/21 11:50:38;;;;;;;;;;;;;;;41.39;17.00;98268.50;5051886;28;19917;-48
2023/07/21 11:53:05;;;;;;;;;;;;;;;41.60;16.95;98266.66;5054752;28;19947;-48
2023/07/21 11:55:30;;;;;;;;;;;;;;;41.75;16.91;98269.94;5055960;28;19982;-49
2023/07/21 11:57:55;;;;;;;;;;;;;;;41.67;16.81;98266.50;5055880;28;19964;-49
2023/07/21 12:00:24;;;;;;;;;;;;;;;41.88;16.68;98262.63;5055808;28;19967;-49
2023/07/21 12:02:50;;;;;;;;;;;;;;;41.68;16.98;98262.56;5055825;28;19963;-49
2023/07/21 12:05:15;;;;;;;;;;;;;;;41.79;16.86;98260.38;5054418;28;19953;-48
2023/07/21 12:07:42;;;;;;;;;;;;;;;41.99;16.65;98263.19;5055639;28;19986;-49
2023/07/21 12:10:08;;;;;;;;;;;;;;;42.13;16.96;98255.88;5055784;28;20281;-49
2023/07/21 12:12:34;;;;;;;;;;;;;;;42.14;16.73;98246.38;5055580;28;19916;-48
2023/07/21 12:15:00;;;;;;;;;;;;;;;41.87;16.62;98248.03;5055512;28;19963;-49
2023/07/21 12:17:25;;;;;;;;;;;;;;;41.78;16.98;98250.56;5055564;28;19952;-49
2023/07/21 12:19:53;;;;;;;;;;;;;;;41.57;17.11;98246.19;5055476;28;19917;-48
2023/07/21 12:22:19;;;;;;;;;;;;;;;41.29;18.31;98239.19;5055372;28;19917;-49
2023/07/21 12:24:44;;;;;;;;;;;;;;;41.03;17.61;98236.03;5054090;28;19971;-49
2023/07/21 12:27:10;;;;;;;;;;;;;;;39.92;18.29;98242.88;5053917;28;19943;-48
2023/07/21 12:29:35;;;;;;;;;;;;;;;38.76;19.11;98233.91;5056299;28;20302;-48
2023/07/21 12:32:01;;;;;;;;;;;;;;;37.64;20.13;98247.13;5075187;28;19924;-47
2023/07/21 12:34:26;;;;;;;;;;;;;;;37.43;21.08;98238.88;5057179;28;19917;-49
2023/07/21 12:36:52;;;;;;;;;;;;;;;38.04;20.46;98239.63;5075073;28;19921;-48
2023/07/21 12:39:17;;;;;;;;;;;;;;;38.42;20.59;98247.38;5075059;28;19917;-48
2023/07/21 12:41:43;;;;;;;;;;;;;;;38.76;19.23;98248.41;5057067;28;19920;-48
2023/07/21 12:44:09;;;;;;;;;;;;;;;38.73;19.43;98248.41;5074951;28;19924;-48